createdAt,value
2023-01-15T01:58:11.265Z,87.30
2023-01-15T02:00:39.744Z,86.97
2023-01-15T02:03:07.418Z,87.35
2023-01-15T02:05:47.509Z,87.25
2023-01-15T02:08:14.874Z,86.92
2023-01-15T02:10:42.609Z,85.99
2023-01-15T02:13:18.935Z,85.55
2023-01-15T02:20:38.191Z,84.70
2023-01-15T02:28:54.110Z,85.05
2023-01-15T02:32:16.112Z,84.79
2023-01-15T02:34:52.658Z,84.31
2023-01-15T02:37:37.790Z,84.28
2023-01-15T02:40:27.566Z,84.27
2023-01-15T02:42:54.093Z,84.55
2023-01-15T02:45:36.958Z,85.09
2023-01-15T02:48:11.652Z,84.78
2023-01-15T02:50:48.927Z,84.73
2023-01-15T02:53:32.115Z,84.67
2023-01-15T02:56:03.813Z,84.66
2023-01-15T02:58:41.066Z,84.98
2023-01-15T03:01:15.987Z,85.12
2023-01-15T03:04:13.866Z,85.21
2023-01-15T03:07:07.575Z,84.79
2023-01-15T03:09:37.344Z,84.98
2023-01-15T03:12:11.337Z,85.12
2023-01-15T03:15:53.406Z,85.11
2023-01-15T03:18:22.921Z,84.97
2023-01-15T03:20:54.136Z,84.51
2023-01-15T03:23:21.872Z,84.28
2023-01-15T03:25:53.451Z,84.10
2023-01-15T03:28:24.009Z,84.23
2023-01-15T03:30:54.077Z,84.15
2023-01-15T03:33:21.166Z,84.29
2023-01-15T03:36:10.618Z,84.30
2023-01-15T03:38:57.208Z,84.37
2023-01-15T03:42:11.468Z,84.38
2023-01-15T03:44:56.730Z,84.39
2023-01-15T03:47:43.129Z,84.75
2023-01-15T03:50:44.170Z,84.64
2023-01-15T03:53:23.604Z,84.80
2023-01-15T03:56:34.368Z,84.92
2023-01-15T03:59:10.163Z,84.91
2023-01-15T04:01:50.828Z,84.61
2023-01-15T04:04:21.896Z,84.64
2023-01-15T04:07:09.790Z,84.36
2023-01-15T04:09:38.934Z,84.38
2023-01-15T04:12:08.481Z,84.48
2023-01-15T04:14:40.902Z,84.51
2023-01-15T04:17:13.028Z,84.67
2023-01-15T04:19:40.379Z,84.67
2023-01-15T04:22:11.017Z,84.71
2023-01-15T04:24:38.205Z,84.79
2023-01-15T04:27:05.412Z,84.76
2023-01-15T04:29:32.757Z,85.02
2023-01-15T04:32:01.144Z,84.94
2023-01-15T04:34:28.815Z,84.71
2023-01-15T04:36:59.226Z,84.50
2023-01-15T04:39:26.294Z,84.47
2023-01-15T04:42:15.979Z,84.56
2023-01-15T04:45:03.495Z,85.02
2023-01-15T04:47:32.041Z,84.40
2023-01-15T04:50:00.628Z,84.04
2023-01-15T04:52:29.153Z,83.98
2023-01-15T04:54:57.711Z,83.76
2023-01-15T04:57:26.697Z,83.63
2023-01-15T04:59:55.608Z,83.56
2023-01-15T05:02:23.224Z,83.69
2023-01-15T05:04:51.025Z,83.52
2023-01-15T05:07:22.110Z,83.56
2023-01-15T05:09:51.321Z,83.92
2023-01-15T05:12:19.176Z,84.17
2023-01-15T05:14:47.227Z,84.18
2023-01-15T05:17:14.662Z,84.03
2023-01-15T05:19:42.314Z,83.88
2023-01-15T05:22:11.121Z,83.87
2023-01-15T05:24:38.630Z,83.68
2023-01-15T05:27:06.182Z,83.60
2023-01-15T05:29:34.566Z,83.41
2023-01-15T05:32:02.934Z,83.66
2023-01-15T05:34:30.888Z,83.66
2023-01-15T05:36:58.559Z,83.96
2023-01-15T05:39:25.835Z,83.94
2023-01-15T05:41:54.481Z,83.52
2023-01-15T05:44:26.768Z,83.64
2023-01-15T05:47:00.180Z,83.96
2023-01-15T05:49:31.930Z,83.65
2023-01-15T05:52:00.288Z,83.69
2023-01-15T05:54:32.651Z,83.68
2023-01-15T05:57:01.264Z,83.61
2023-01-15T05:59:31.701Z,83.52
2023-01-15T06:02:02.612Z,83.67
2023-01-15T06:07:48.241Z,83.79
2023-01-15T06:10:20.518Z,84.01
2023-01-15T06:12:53.857Z,83.93
2023-01-15T06:15:26.215Z,84.03
2023-01-15T06:18:21.767Z,83.84
2023-01-15T06:21:11.638Z,83.97
2023-01-15T06:23:40.910Z,84.05
2023-01-15T06:28:44.858Z,84.00
2023-01-15T06:31:30.129Z,83.97
2023-01-15T06:34:23.553Z,83.83
2023-01-15T06:37:32.084Z,83.38
2023-01-15T06:40:23.538Z,83.08
2023-01-15T06:50:33.851Z,82.78
2023-01-15T06:53:32.307Z,83.28
2023-01-15T06:59:27.202Z,83.19
2023-01-15T10:52:44.658Z,89.62
2023-01-15T10:55:25.674Z,89.21
2023-01-15T10:58:09.951Z,88.56
2023-01-15T11:00:40.292Z,87.95
2023-01-15T11:03:18.074Z,87.40
2023-01-15T11:05:46.417Z,87.34
2023-01-15T11:12:21.741Z,86.81
2023-01-15T11:18:22.102Z,86.00
2023-01-15T11:20:50.441Z,85.65
2023-01-15T11:23:19.904Z,85.40
2023-01-15T11:25:54.945Z,85.62
2023-01-15T11:28:36.231Z,85.11
2023-01-15T11:31:11.565Z,84.67
2023-01-15T11:33:39.151Z,84.67
2023-01-15T11:36:29.403Z,84.36
2023-01-15T11:39:04.931Z,84.14
2023-01-15T11:41:51.999Z,84.08
2023-01-15T11:44:39.323Z,84.24
2023-01-15T11:47:31.899Z,84.28
2023-01-15T11:50:37.615Z,84.09
2023-01-15T11:53:04.929Z,83.90
2023-01-15T11:55:32.317Z,83.32
2023-01-15T11:58:03.642Z,83.10
2023-01-15T12:00:34.212Z,82.77
2023-01-15T12:03:12.842Z,82.80
2023-01-15T12:06:13.477Z,82.87
2023-01-15T12:08:45.815Z,82.79
2023-01-15T12:11:49.535Z,82.82
2023-01-15T12:14:59.563Z,82.41
2023-01-15T12:18:16.843Z,82.24
2023-01-15T12:21:12.143Z,82.15
2023-01-15T12:24:09.300Z,82.19
2023-01-15T12:27:10.198Z,82.21
2023-01-15T12:37:05.211Z,82.95
2023-01-15T12:39:50.009Z,83.20
2023-01-15T12:42:41.699Z,83.34
2023-01-15T12:45:19.633Z,83.40
2023-01-15T12:48:32.616Z,83.76
2023-01-15T13:23:14.927Z,81.80
2023-01-15T14:54:13.484Z,84.03
2023-01-15T14:57:19.223Z,84.19
2023-01-15T15:03:33.196Z,83.89
2023-01-15T15:12:55.993Z,83.13
2023-01-15T15:15:29.326Z,83.18
2023-01-15T15:21:24.004Z,83.53
2023-01-15T16:06:09.826Z,83.19
2023-01-15T20:19:05.396Z,87.63
2023-01-15T20:54:27.521Z,83.11
2023-01-15T20:57:02.860Z,82.83
2023-01-15T21:00:01.962Z,82.67
2023-01-15T21:02:54.181Z,82.71
2023-01-15T21:05:47.284Z,82.97
2023-01-15T21:08:30.228Z,82.91
2023-01-15T21:11:03.891Z,82.96
2023-01-15T21:13:32.981Z,82.90
2023-01-15T21:19:18.838Z,82.40
2023-01-15T21:22:03.219Z,82.46
2023-01-15T21:24:37.332Z,82.41
2023-01-15T21:27:14.204Z,82.44
2023-01-15T21:29:50.236Z,82.42
2023-01-15T21:32:33.150Z,82.81
2023-01-15T21:35:10.683Z,82.72
2023-01-15T21:37:57.593Z,82.35
2023-01-15T21:40:53.993Z,82.15
2023-01-15T21:43:48.994Z,81.87
2023-01-15T21:46:17.855Z,81.72
2023-01-15T21:48:45.258Z,81.67
2023-01-15T21:51:14.260Z,82.15
2023-01-15T21:53:48.487Z,82.17
2023-01-15T21:56:15.731Z,82.22
2023-01-15T21:58:45.112Z,82.06
2023-01-15T22:01:32.924Z,82.10
